Time;durP1;ratioP1;P1;durP2;ratioP2;P2;SDS_P1;SDS_P2;PMS_P1;PMS_P2;Temp;Humidity;BMP_temperature;BMP_pressure;BME280_temperature;BME280_humidity;BME280_pressure;Samples;Min_cycle;Max_cycle;Signal;HPM_P1;HPM_P2
2022/03/01 00:00:13;;;;;;;13.60;9.07;;;3.80;56.10;;;;;;5116988;28;20442;-59
2022/03/01 00:02:43;;;;;;;9.87;8.40;;;3.80;56.30;;;;;;5117334;28;20746;-59
2022/03/01 00:05:10;;;;;;;16.47;10.50;;;3.80;56.40;;;;;;5117239;28;20929;-58
2022/03/01 00:07:38;;;;;;;15.93;8.67;;;3.70;56.60;;;;;;5117191;28;20461;-59
2022/03/01 00:10:06;;;;;;;15.00;8.27;;;3.70;56.60;;;;;;5117156;28;20442;-58
2022/03/01 00:12:33;;;;;;;14.93;9.37;;;3.70;57.20;;;;;;5117081;28;20582;-58
2022/03/01 00:15:01;;;;;;;15.67;10.53;;;3.60;56.90;;;;;;5116723;28;20515;-59
2022/03/01 00:17:28;;;;;;;12.30;7.67;;;3.60;57.10;;;;;;5116605;28;21015;-58
2022/03/01 00:19:57;;;;;;;12.60;8.67;;;3.60;57.50;;;;;;5116553;28;20788;-59
2022/03/01 00:22:24;;;;;;;14.50;10.20;;;3.60;57.30;;;;;;5116525;28;20929;-58
2022/03/01 00:24:51;;;;;;;12.17;8.70;;;3.60;57.50;;;;;;5116341;28;20447;-58
2022/03/01 00:27:18;;;;;;;16.20;8.90;;;3.60;57.90;;;;;;5115790;28;20466;-58
2022/03/01 00:29:45;;;;;;;13.10;9.90;;;3.50;57.80;;;;;;5116662;28;20529;-58
2022/03/01 00:32:13;;;;;;;14.10;9.30;;;3.50;57.30;;;;;;5116650;28;20439;-57
2022/03/01 00:34:40;;;;;;;12.50;8.83;;;3.50;58.10;;;;;;5116591;28;20482;-58
2022/03/01 00:37:08;;;;;;;17.10;9.80;;;3.50;58.10;;;;;;5116632;28;20498;-58
2022/03/01 00:39:36;;;;;;;13.93;9.97;;;3.40;58.10;;;;;;5116561;28;20545;-57
2022/03/01 00:42:03;;;;;;;15.17;9.80;;;3.40;58.20;;;;;;5116644;28;20503;-57
2022/03/01 00:44:30;;;;;;;16.17;9.70;;;3.50;58.50;;;;;;5116424;28;20445;-57
2022/03/01 00:46:57;;;;;;;15.20;10.07;;;3.40;58.10;;;;;;5116022;28;20470;-57
2022/03/01 00:49:24;;;;;;;10.27;8.67;;;3.50;58.60;;;;;;5116916;28;20453;-57
2022/03/01 00:51:52;;;;;;;15.63;10.13;;;3.40;58.80;;;;;;5115973;28;20442;-57
2022/03/01 00:54:20;;;;;;;15.93;10.60;;;3.20;58.70;;;;;;5115900;28;21372;-57
2022/03/01 00:56:47;;;;;;;12.40;9.47;;;3.20;58.80;;;;;;5115871;28;20469;-57
2022/03/01 00:59:14;;;;;;;13.40;10.50;;;3.10;59.20;;;;;;5116150;28;20447;-57
2022/03/01 01:01:41;;;;;;;11.57;8.33;;;3.10;59.30;;;;;;5116641;28;20449;-57
2022/03/01 01:04:08;;;;;;;16.93;9.63;;;3.20;59.00;;;;;;5116050;28;20449;-57
2022/03/01 01:06:36;;;;;;;15.17;9.27;;;3.20;59.10;;;;;;5115972;28;20469;-57
2022/03/01 01:09:03;;;;;;;14.73;9.17;;;3.30;59.90;;;;;;5115631;28;20537;-57
2022/03/01 01:11:31;;;;;;;14.50;8.80;;;3.20;59.30;;;;;;5115655;28;20453;-57
2022/03/01 01:13:59;;;;;;;14.70;10.50;;;3.20;59.30;;;;;;5115489;28;20537;-57
2022/03/01 01:16:26;;;;;;;11.73;9.93;;;3.10;59.20;;;;;;5115779;28;20490;-57
2022/03/01 01:18:54;;;;;;;12.87;8.67;;;3.00;59.50;;;;;;5115812;28;20472;-57
2022/03/01 01:21:21;;;;;;;14.07;9.20;;;3.10;59.60;;;;;;5115743;28;20810;-57
2022/03/01 01:23:49;;;;;;;14.87;10.27;;;3.10;59.90;;;;;;5115724;28;20541;-57
2022/03/01 01:26:16;;;;;;;17.20;9.03;;;3.10;60.00;;;;;;5115292;28;20494;-57
2022/03/01 01:28:44;;;;;;;22.00;9.93;;;3.10;60.00;;;;;;5115273;28;20991;-57
2022/03/01 01:31:11;;;;;;;14.43;10.13;;;2.90;60.10;;;;;;5115221;28;20968;-57
2022/03/01 01:33:38;;;;;;;12.87;10.00;;;2.80;61.00;;;;;;5116123;28;20445;-57
2022/03/01 01:36:05;;;;;;;11.70;10.03;;;2.90;61.00;;;;;;5115322;28;20557;-57
2022/03/01 01:38:33;;;;;;;12.87;9.90;;;2.90;60.90;;;;;;5115263;28;20453;-57
2022/03/01 01:41:00;;;;;;;14.70;10.53;;;2.90;60.70;;;;;;5115369;28;20540;-57
2022/03/01 01:43:27;;;;;;;16.17;8.87;;;2.80;61.10;;;;;;5115339;28;20446;-57
2022/03/01 01:45:55;;;;;;;12.33;9.40;;;2.80;62.40;;;;;;5115201;28;20470;-57
2022/03/01 01:48:22;;;;;;;18.13;10.83;;;2.80;63.20;;;;;;5115166;28;20442;-57
2022/03/01 01:50:50;;;;;;;12.03;8.40;;;2.80;63.00;;;;;;5115239;28;20449;-57
2022/03/01 01:53:17;;;;;;;12.40;9.27;;;2.80;63.40;;;;;;5115090;28;20452;-57
2022/03/01 01:55:44;;;;;;;17.13;9.67;;;2.80;64.00;;;;;;5114945;28;20486;-57
2022/03/01 01:58:11;;;;;;;17.63;9.57;;;2.70;64.80;;;;;;5115027;28;20572;-57
2022/03/01 02:00:39;;;;;;;16.30;10.03;;;2.70;65.60;;;;;;5115075;28;20446;-57
2022/03/01 02:03:07;;;;;;;15.20;10.03;;;2.70;65.50;;;;;;5114653;28;20808;-57
2022/03/01 02:05:34;;;;;;;11.97;10.43;;;2.70;65.60;;;;;;5114865;28;20442;-57
2022/03/01 02:08:02;;;;;;;14.07;9.17;;;2.70;65.30;;;;;;5114533;28;20462;-57
2022/03/01 02:10:29;;;;;;;13.97;9.43;;;2.60;65.80;;;;;;5114998;28;20449;-57
2022/03/01 02:12:57;;;;;;;15.33;9.70;;;2.70;66.00;;;;;;5114442;28;20451;-57
2022/03/01 02:15:24;;;;;;;12.83;9.20;;;2.60;66.10;;;;;;5114646;28;20501;-57
2022/03/01 02:17:53;;;;;;;15.77;10.77;;;2.60;66.70;;;;;;5114621;28;20462;-57
2022/03/01 02:20:24;;;;;;;15.73;9.40;;;2.50;66.50;;;;;;5114798;28;20453;-57
2022/03/01 02:22:55;;;;;;;13.53;8.83;;;2.60;67.70;;;;;;5114849;28;20457;-57
2022/03/01 02:25:22;;;;;;;15.70;10.40;;;2.50;66.30;;;;;;5114428;28;20851;-57
2022/03/01 02:27:50;;;;;;;17.77;9.50;;;2.50;67.10;;;;;;5114275;28;20976;-57
2022/03/01 02:30:17;;;;;;;15.57;9.13;;;2.50;67.10;;;;;;5114641;28;20443;-57
2022/03/01 02:32:44;;;;;;;17.03;9.40;;;2.50;67.10;;;;;;5114512;28;20446;-57
2022/03/01 02:35:12;;;;;;;12.17;9.70;;;2.40;66.70;;;;;;5114596;28;20478;-57
2022/03/01 02:37:41;;;;;;;13.30;9.83;;;2.40;66.50;;;;;;5114364;28;20470;-57
2022/03/01 02:40:09;;;;;;;14.50;9.67;;;2.40;67.30;;;;;;5114330;28;20449;-57
2022/03/01 02:42:37;;;;;;;13.47;9.50;;;2.30;67.20;;;;;;5114034;28;20928;-56
2022/03/01 02:45:05;;;;;;;11.20;8.87;;;2.20;67.60;;;;;;5114298;28;20542;-56
2022/03/01 02:47:32;;;;;;;15.00;10.77;;;2.20;67.70;;;;;;5114108;28;20462;-57
2022/03/01 02:49:59;;;;;;;17.23;10.57;;;2.30;68.40;;;;;;5113762;28;20451;-57
2022/03/01 02:52:26;;;;;;;13.33;10.03;;;2.20;67.90;;;;;;5113744;28;20443;-57
2022/03/01 02:54:55;;;;;;;12.70;9.50;;;2.20;67.60;;;;;;5114001;28;20479;-56
2022/03/01 02:57:22;;;;;;;13.77;9.50;;;2.20;68.20;;;;;;5114445;28;20474;-57
2022/03/01 02:59:49;;;;;;;13.53;9.83;;;2.20;69.10;;;;;;5114188;28;20486;-57
2022/03/01 03:02:16;;;;;;;13.60;9.27;;;2.20;68.60;;;;;;5114136;28;20530;-57
2022/03/01 03:04:44;;;;;;;12.00;9.97;;;2.20;68.90;;;;;;5114174;28;20438;-57
2022/03/01 03:07:11;;;;;;;14.03;10.90;;;2.20;69.30;;;;;;5114062;28;20468;-57
2022/03/01 03:09:39;;;;;;;12.23;9.30;;;2.30;69.10;;;;;;5114931;28;20857;-57
2022/03/01 03:12:09;;;;;;;12.37;8.90;;;2.30;69.40;;;;;;5113808;28;20995;-56
2022/03/01 03:14:36;;;;;;;13.27;9.70;;;2.10;68.50;;;;;;5114178;28;20925;-57
2022/03/01 03:17:04;;;;;;;9.30;7.30;;;2.10;69.80;;;;;;5113863;28;20462;-57
2022/03/01 03:19:32;;;;;;;12.83;10.00;;;2.00;69.30;;;;;;5113715;28;20811;-57
2022/03/01 03:21:59;;;;;;;13.70;10.37;;;1.90;69.80;;;;;;5113691;28;20446;-57
2022/03/01 03:24:27;;;;;;;13.47;9.20;;;2.00;70.40;;;;;;5113683;28;20463;-57
2022/03/01 03:26:54;;;;;;;12.10;8.47;;;2.00;70.30;;;;;;5113406;28;20482;-56
2022/03/01 03:29:22;;;;;;;11.77;9.57;;;2.00;69.90;;;;;;5114392;28;20939;-57
2022/03/01 03:31:54;;;;;;;12.90;9.37;;;2.10;70.20;;;;;;5114425;28;20901;-56
2022/03/01 03:34:21;;;;;;;13.80;9.90;;;2.00;70.00;;;;;;5113883;28;20427;-56
2022/03/01 03:36:48;;;;;;;16.03;10.00;;;1.90;69.50;;;;;;5113696;28;20486;-57
2022/03/01 03:39:16;;;;;;;16.17;9.50;;;;;;;;;;5113825;28;20449;-56
2022/03/01 03:41:43;;;;;;;15.70;8.60;;;1.80;69.10;;;;;;5113487;28;20945;-56
2022/03/01 03:44:10;;;;;;;17.90;8.47;;;1.80;69.30;;;;;;5114228;28;20928;-56
2022/03/01 03:46:39;;;;;;;12.07;9.27;;;1.80;69.90;;;;;;5113891;28;20553;-56
2022/03/01 03:49:06;;;;;;;17.67;9.60;;;1.70;69.60;;;;;;5113556;28;20438;-56
2022/03/01 03:51:33;;;;;;;16.37;11.10;;;1.70;69.50;;;;;;5113396;28;20489;-56
2022/03/01 03:54:01;;;;;;;15.23;10.13;;;1.70;70.20;;;;;;5113553;28;20507;-57
2022/03/01 03:56:28;;;;;;;12.70;9.07;;;1.70;70.00;;;;;;5113600;28;20482;-57
2022/03/01 03:58:57;;;;;;;15.83;10.00;;;1.60;69.90;;;;;;5113641;28;20545;-56
2022/03/01 04:01:24;;;;;;;15.20;10.33;;;1.60;70.00;;;;;;5113620;28;20442;-56
2022/03/01 04:03:53;;;;;;;11.40;7.73;;;1.60;70.30;;;;;;5116282;28;20439;-57
2022/03/01 04:06:20;;;;;;;13.90;9.43;;;1.60;70.20;;;;;;5116871;28;20520;-56
2022/03/01 04:08:48;;;;;;;15.20;10.57;;;1.60;70.40;;;;;;5117218;28;20460;-56
2022/03/01 04:11:15;;;;;;;8.67;7.50;;;1.50;70.30;;;;;;5117160;28;20434;-56
2022/03/01 04:13:42;;;;;;;18.67;10.33;;;1.50;71.00;;;;;;5117153;28;20443;-56
2022/03/01 04:16:09;;;;;;;16.43;9.40;;;1.50;71.20;;;;;;5116855;28;20577;-56
2022/03/01 04:18:36;;;;;;;11.83;8.63;;;1.50;71.90;;;;;;5117012;28;20783;-56
2022/03/01 04:21:05;;;;;;;16.83;9.70;;;1.40;71.90;;;;;;5116614;28;20979;-56
2022/03/01 04:23:33;;;;;;;14.00;9.97;;;1.40;71.50;;;;;;5116916;28;20447;-56
2022/03/01 04:26:00;;;;;;;13.73;9.77;;;1.40;71.60;;;;;;5116977;28;20532;-56
2022/03/01 04:28:27;;;;;;;15.03;9.47;;;1.40;72.10;;;;;;5116840;28;20865;-56
2022/03/01 04:30:55;;;;;;;15.10;9.27;;;1.40;71.90;;;;;;5116599;28;20446;-56
2022/03/01 04:33:22;;;;;;;11.00;8.80;;;1.40;72.00;;;;;;5116396;28;20446;-57
2022/03/01 04:35:50;;;;;;;14.63;9.30;;;1.40;72.50;;;;;;5116639;28;20482;-56
2022/03/01 04:38:20;;;;;;;12.60;9.03;;;1.40;72.30;;;;;;5116619;28;20438;-58
2022/03/01 04:40:48;;;;;;;12.10;8.10;;;1.40;72.80;;;;;;5116677;28;20473;-56
2022/03/01 04:43:15;;;;;;;14.30;8.60;;;1.40;72.80;;;;;;5116276;28;20442;-57
2022/03/01 04:45:42;;;;;;;14.70;10.23;;;1.40;72.50;;;;;;5116098;28;20959;-56
2022/03/01 04:48:09;;;;;;;13.57;8.30;;;1.50;72.80;;;;;;5116634;28;20442;-56
2022/03/01 04:50:36;;;;;;;17.00;9.23;;;1.50;73.00;;;;;;5116349;28;20457;-56
2022/03/01 04:53:03;;;;;;;13.03;8.00;;;1.50;71.40;;;;;;5116360;28;20470;-56
2022/03/01 04:55:32;;;;;;;14.90;10.77;;;1.40;71.60;;;;;;5115773;28;20482;-56
2022/03/01 04:58:00;;;;;;;15.57;9.80;;;1.50;72.10;;;;;;5115853;28;20477;-56
2022/03/01 05:00:27;;;;;;;12.00;9.03;;;1.50;71.70;;;;;;5116273;27;20450;-57
2022/03/01 05:02:54;;;;;;;12.30;8.80;;;1.50;73.50;;;;;;5116102;28;20455;-56
2022/03/01 05:05:21;;;;;;;22.50;9.67;;;1.50;72.30;;;;;;5116058;28;20439;-56
2022/03/01 05:07:49;;;;;;;9.80;8.73;;;1.40;72.50;;;;;;5115944;28;20498;-56
2022/03/01 05:10:19;;;;;;;10.63;8.73;;;1.40;72.10;;;;;;5115657;28;21012;-56
2022/03/01 05:12:49;;;;;;;12.00;9.30;;;1.40;72.20;;;;;;5115681;28;20463;-56
2022/03/01 05:15:16;;;;;;;14.17;9.90;;;1.40;72.00;;;;;;5115710;28;20499;-57
2022/03/01 05:17:44;;;;;;;12.00;9.47;;;1.40;72.90;;;;;;5115741;28;20465;-57
2022/03/01 05:20:13;;;;;;;13.93;9.60;;;1.40;72.10;;;;;;5115754;28;20449;-56
2022/03/01 05:22:41;;;;;;;15.20;9.57;;;1.50;73.20;;;;;;5115318;28;20542;-56
2022/03/01 05:25:10;;;;;;;12.20;10.57;;;1.60;73.10;;;;;;5115102;28;20521;-56
2022/03/01 05:27:38;;;;;;;11.67;8.30;;;1.40;72.60;;;;;;5115283;28;20469;-56
2022/03/01 05:30:13;;;;;;;15.47;9.90;;;1.30;72.90;;;;;;5115280;28;20944;-56
2022/03/01 05:32:42;;;;;;;13.57;9.87;;;1.30;72.70;;;;;;5115336;28;20897;-56
2022/03/01 05:35:13;;;;;;;12.07;8.27;;;1.30;72.90;;;;;;5115053;28;20447;-56
2022/03/01 05:37:41;;;;;;;15.60;10.57;;;1.30;73.50;;;;;;5115292;28;20473;-56
2022/03/01 05:40:09;;;;;;;14.90;9.63;;;1.10;74.40;;;;;;5115032;28;20443;-56
2022/03/01 05:42:37;;;;;;;17.03;8.83;;;1.10;74.60;;;;;;5115304;28;20442;-56
2022/03/01 05:45:05;;;;;;;15.60;10.33;;;1.30;74.70;;;;;;5115304;28;20542;-56
2022/03/01 05:47:34;;;;;;;15.20;9.73;;;1.30;74.40;;;;;;5115169;28;20549;-56
2022/03/01 05:50:03;;;;;;;12.90;9.30;;;1.30;74.40;;;;;;5115372;28;20445;-56
2022/03/01 05:52:30;;;;;;;15.37;10.53;;;1.30;73.00;;;;;;5115050;28;20948;-56
2022/03/01 05:54:57;;;;;;;11.10;9.10;;;1.40;72.50;;;;;;5114823;28;20450;-57
2022/03/01 05:57:28;;;;;;;15.33;10.13;;;1.30;71.90;;;;;;5114695;28;20490;-57
2022/03/01 05:59:55;;;;;;;19.07;10.17;;;1.30;72.50;;;;;;5115208;28;20448;-56
2022/03/01 06:02:22;;;;;;;14.77;10.87;;;1.30;72.80;;;;;;5114846;28;20451;-56
2022/03/01 06:04:52;;;;;;;17.17;9.90;;;1.30;71.80;;;;;;5114760;28;20537;-56
2022/03/01 06:07:19;;;;;;;12.67;9.00;;;1.30;72.00;;;;;;5114762;28;20549;-56
2022/03/01 06:09:47;;;;;;;15.70;10.13;;;1.10;72.80;;;;;;5114440;28;20446;-56
2022/03/01 06:12:14;;;;;;;16.40;9.90;;;1.10;73.70;;;;;;5114609;28;20490;-56
2022/03/01 06:14:41;;;;;;;15.17;10.23;;;1.30;74.20;;;;;;5114754;28;20783;-56
2022/03/01 06:17:09;;;;;;;17.90;10.73;;;1.30;74.40;;;;;;5114447;28;20911;-56
2022/03/01 06:19:36;;;;;;;18.47;10.67;;;1.30;74.20;;;;;;5114411;28;20952;-56
2022/03/01 06:22:06;;;;;;;13.80;9.10;;;1.40;73.60;;;;;;5114542;28;20446;-56
2022/03/01 06:24:33;;;;;;;13.23;9.53;;;1.40;71.70;;;;;;5113599;28;20461;-56
2022/03/01 06:27:01;;;;;;;11.53;9.23;;;1.40;72.90;;;;;;5113897;28;20478;-56
2022/03/01 06:29:28;;;;;;;13.73;8.20;;;1.40;73.30;;;;;;5114147;28;20443;-56
2022/03/01 06:31:55;;;;;;;12.93;8.80;;;1.40;72.10;;;;;;5114293;28;20442;-56
2022/03/01 06:34:23;;;;;;;14.70;9.70;;;1.40;72.00;;;;;;5114003;28;20486;-56
2022/03/01 06:36:50;;;;;;;16.17;10.80;;;1.40;72.30;;;;;;5114226;28;20921;-56
2022/03/01 06:39:18;;;;;;;15.60;9.30;;;1.40;71.20;;;;;;5114116;28;20529;-56
2022/03/01 06:41:46;;;;;;;17.23;9.90;;;1.40;72.20;;;;;;5114361;28;20492;-56
2022/03/01 06:44:13;;;;;;;13.00;9.60;;;1.40;71.90;;;;;;5113562;28;20560;-56
2022/03/01 06:46:40;;;;;;;15.63;9.90;;;1.50;72.50;;;;;;5114007;28;20977;-56
2022/03/01 06:49:07;;;;;;;14.40;9.87;;;1.40;73.20;;;;;;5114065;28;20474;-56
2022/03/01 06:51:34;;;;;;;15.70;9.50;;;1.40;72.50;;;;;;5114133;28;20450;-56
2022/03/01 06:54:01;;;;;;;16.50;9.77;;;1.20;72.70;;;;;;5114248;28;20451;-56
2022/03/01 06:56:30;;;;;;;14.07;8.60;;;1.20;73.20;;;;;;5113768;28;20502;-56
2022/03/01 06:58:57;;;;;;;12.30;9.70;;;1.20;72.90;;;;;;5113951;28;20822;-56
2022/03/01 07:01:24;;;;;;;17.30;10.37;;;1.20;73.50;;;;;;5114061;28;20450;-56
2022/03/01 07:03:51;;;;;;;22.97;9.70;;;1.20;73.40;;;;;;5113867;28;21004;-56
2022/03/01 07:06:19;;;;;;;14.43;9.73;;;1.20;73.50;;;;;;5113788;28;20459;-56
2022/03/01 07:08:46;;;;;;;15.20;11.10;;;1.20;72.40;;;;;;5113645;28;20813;-56
2022/03/01 07:11:13;;;;;;;14.00;10.37;;;1.30;73.50;;;;;;5113573;28;20489;-57
2022/03/01 07:13:41;;;;;;;16.80;10.80;;;1.40;72.30;;;;;;5113839;28;20442;-56
2022/03/01 07:16:09;;;;;;;16.50;10.20;;;1.40;71.70;;;;;;5113646;28;20482;-56
2022/03/01 07:18:36;;;;;;;16.10;9.70;;;1.50;71.00;;;;;;5113736;28;20454;-57
2022/03/01 07:21:04;;;;;;;19.23;10.57;;;1.60;71.20;;;;;;5113706;28;20988;-56
2022/03/01 07:23:31;;;;;;;15.73;10.90;;;1.70;71.40;;;;;;5113650;28;20457;-56
2022/03/01 07:25:58;;;;;;;13.30;10.87;;;1.70;71.70;;;;;;5113494;28;20482;-55
2022/03/01 07:28:27;;;;;;;17.27;11.17;;;1.60;72.60;;;;;;5113337;28;20499;-56
2022/03/01 07:30:55;;;;;;;17.90;10.97;;;1.60;73.00;;;;;;5113568;28;20470;-56
2022/03/01 07:33:23;;;;;;;17.80;10.37;;;1.50;71.40;;;;;;5113261;28;20453;-56
2022/03/01 07:35:50;;;;;;;16.40;10.00;;;1.50;71.80;;;;;;5113105;28;20998;-56
2022/03/01 07:38:17;;;;;;;13.33;9.50;;;1.60;71.30;;;;;;5117159;28;20529;-56
2022/03/01 07:40:45;;;;;;;18.17;10.40;;;1.60;70.20;;;;;;5117137;28;20960;-56
2022/03/01 07:43:12;;;;;;;16.63;10.63;;;1.50;69.50;;;;;;5117103;28;20457;-56
2022/03/01 07:45:39;;;;;;;15.57;11.53;;;1.60;70.40;;;;;;5117388;28;20519;-56
2022/03/01 07:48:10;;;;;;;12.50;9.30;;;1.70;70.30;;;;;;5116986;28;20459;-56
2022/03/01 07:50:37;;;;;;;14.27;10.20;;;1.70;69.10;;;;;;5117344;28;20438;-56
2022/03/01 07:53:04;;;;;;;15.80;9.53;;;1.90;68.50;;;;;;5117038;28;20447;-56
2022/03/01 07:55:34;;;;;;;15.23;10.00;;;2.00;69.50;;;;;;5116857;28;20541;-56
2022/03/01 07:58:01;;;;;;;15.67;10.60;;;2.00;68.60;;;;;;5116736;28;20482;-56
2022/03/01 08:00:28;;;;;;;18.83;10.63;;;2.00;68.20;;;;;;5117087;28;20473;-56
2022/03/01 08:02:55;;;;;;;14.70;10.37;;;2.00;67.90;;;;;;5117131;28;20870;-56
2022/03/01 08:05:24;;;;;;;16.90;11.10;;;2.00;67.00;;;;;;5116957;28;20482;-56
2022/03/01 08:07:52;;;;;;;11.33;8.60;;;2.10;66.90;;;;;;5116762;28;20823;-56
2022/03/01 08:10:19;;;;;;;12.57;9.30;;;2.10;66.60;;;;;;5116539;28;20929;-56
2022/03/01 08:12:46;;;;;;;13.50;9.60;;;2.10;66.80;;;;;;5116539;28;20845;-56
2022/03/01 08:15:13;;;;;;;14.43;9.40;;;2.20;66.60;;;;;;5116453;28;20443;-56
2022/03/01 08:17:48;;;;;;;15.00;9.73;;;2.10;66.20;;;;;;5116345;28;20488;-56
2022/03/01 08:20:15;;;;;;;19.87;9.83;;;2.00;66.10;;;;;;5116226;28;20793;-57
2022/03/01 08:22:44;;;;;;;16.10;9.23;;;2.10;65.80;;;;;;5116072;28;20454;-57
2022/03/01 08:25:11;;;;;;;14.90;10.77;;;2.20;65.50;;;;;;5116179;28;20478;-57
2022/03/01 08:27:38;;;;;;;14.80;9.33;;;2.10;64.30;;;;;;5115728;28;20957;-55
2022/03/01 08:30:07;;;;;;;14.47;9.93;;;2.10;65.30;;;;;;5116005;28;20959;-56
2022/03/01 08:32:34;;;;;;;12.43;10.63;;;2.30;65.20;;;;;;5116314;28;20460;-56
2022/03/01 08:35:01;;;;;;;15.47;9.10;;;2.40;65.70;;;;;;5116040;28;20445;-56
2022/03/01 08:37:29;;;;;;;15.20;9.23;;;2.50;64.80;;;;;;5115989;28;20848;-55
2022/03/01 08:39:58;;;;;;;15.07;10.30;;;2.60;64.80;;;;;;5116261;28;20549;-56
2022/03/01 08:42:25;;;;;;;16.17;10.67;;;2.70;64.30;;;;;;5115623;28;20464;-57
2022/03/01 08:44:52;;;;;;;15.73;9.53;;;2.50;64.00;;;;;;5115646;28;20442;-57
2022/03/01 08:47:19;;;;;;;15.40;9.53;;;2.50;64.00;;;;;;5116015;28;20490;-57
2022/03/01 08:49:46;;;;;;;14.47;10.53;;;2.50;64.10;;;;;;5114913;28;20533;-56
2022/03/01 08:52:14;;;;;;;12.60;8.57;;;2.50;63.80;;;;;;5116528;28;20459;-56
2022/03/01 08:54:42;;;;;;;13.80;9.97;;;2.60;64.10;;;;;;5115575;28;20459;-55
2022/03/01 08:57:10;;;;;;;15.10;9.50;;;2.60;63.30;;;;;;5115436;28;20531;-56
2022/03/01 08:59:38;;;;;;;13.53;8.93;;;2.70;62.20;;;;;;5115251;28;20873;-58
2022/03/01 09:02:05;;;;;;;14.27;10.37;;;2.80;62.20;;;;;;5115753;28;20442;-55
2022/03/01 09:04:32;;;;;;;12.87;8.70;;;2.90;61.80;;;;;;5115714;28;20499;-56
2022/03/01 09:06:59;;;;;;;11.30;8.63;;;3.00;61.40;;;;;;5115505;28;20470;-56
2022/03/01 09:09:27;;;;;;;12.97;8.70;;;3.10;60.30;;;;;;5115767;28;20534;-56
2022/03/01 09:11:54;;;;;;;11.90;8.77;;;3.10;60.70;;;;;;5115195;28;20921;-56
2022/03/01 09:14:22;;;;;;;11.90;8.70;;;3.20;60.00;;;;;;5115653;28;20516;-56
2022/03/01 09:16:49;;;;;;;13.80;9.10;;;3.30;60.80;;;;;;5115514;28;20574;-56
2022/03/01 09:19:16;;;;;;;12.57;10.20;;;3.30;59.80;;;;;;5115446;28;20531;-56
2022/03/01 09:21:44;;;;;;;13.17;8.33;;;3.30;59.70;;;;;;5115433;28;20952;-56
2022/03/01 09:24:11;;;;;;;13.07;9.17;;;3.40;59.60;;;;;;5115274;28;20632;-56
2022/03/01 09:26:38;;;;;;;11.90;9.43;;;3.30;59.00;;;;;;5114824;28;20554;-56
2022/03/01 09:29:06;;;;;;;14.00;8.70;;;3.30;59.40;;;;;;5115145;28;20499;-56
2022/03/01 09:31:35;;;;;;;13.90;9.67;;;3.30;59.60;;;;;;5115151;28;20446;-56
2022/03/01 09:34:02;;;;;;;12.20;8.90;;;3.30;59.80;;;;;;5115034;28;20447;-56
2022/03/01 09:36:29;;;;;;;12.50;9.90;;;3.40;60.40;;;;;;5115085;28;20549;-56
2022/03/01 09:38:56;;;;;;;13.37;9.90;;;3.50;59.80;;;;;;5114995;28;20447;-56
2022/03/01 09:41:24;;;;;;;9.30;8.20;;;3.50;59.70;;;;;;5114792;28;20443;-56
2022/03/01 09:43:54;;;;;;;12.10;8.10;;;3.60;59.30;;;;;;5114735;28;20439;-56
2022/03/01 09:46:22;;;;;;;10.10;8.10;;;3.70;59.30;;;;;;5114877;28;21021;-56
2022/03/01 09:48:53;;;;;;;12.20;8.60;;;3.70;59.20;;;;;;5114579;28;20925;-58
2022/03/01 09:51:21;;;;;;;11.97;8.70;;;3.70;58.60;;;;;;5114893;28;20514;-56
2022/03/01 09:53:50;;;;;;;10.40;9.20;;;3.80;58.70;;;;;;5115335;28;20545;-56
2022/03/01 09:56:18;;;;;;;12.57;8.40;;;3.70;58.20;;;;;;5114870;28;20472;-56
2022/03/01 09:58:46;;;;;;;10.10;8.00;;;3.70;58.60;;;;;;5114305;28;21053;-56
2022/03/01 10:01:16;;;;;;;13.93;8.43;;;3.80;58.50;;;;;;5114496;28;20515;-58
2022/03/01 10:03:48;;;;;;;15.50;8.57;;;3.90;58.10;;;;;;5114300;28;20941;-56
2022/03/01 10:06:18;;;;;;;12.63;7.40;;;3.90;57.70;;;;;;5114660;28;20462;-56
2022/03/01 10:08:46;;;;;;;12.67;8.77;;;4.10;57.40;;;;;;5114683;28;20529;-57
2022/03/01 10:11:16;;;;;;;11.47;8.63;;;4.10;57.30;;;;;;5114772;28;20454;-56
2022/03/01 10:13:43;;;;;;;15.00;9.43;;;4.10;57.60;;;;;;5114053;28;20450;-57
2022/03/01 10:16:12;;;;;;;10.90;8.13;;;4.10;57.90;;;;;;5114032;28;20467;-57
2022/03/01 10:18:41;;;;;;;8.47;7.27;;;4.30;57.50;;;;;;5113768;28;20834;-57
2022/03/01 10:21:10;;;;;;;9.30;7.97;;;4.80;56.70;;;;;;5114232;28;20925;-57
2022/03/01 10:23:41;;;;;;;11.83;8.13;;;5.60;55.90;;;;;;5113949;28;20537;-57
2022/03/01 10:26:13;;;;;;;10.73;8.20;;;6.20;54.60;;;;;;5112606;28;20979;-57
2022/03/01 10:28:41;;;;;;;12.40;8.67;;;6.80;54.10;;;;;;5114126;28;20862;-57
2022/03/01 10:31:16;;;;;;;10.03;9.00;;;7.20;53.10;;;;;;5113856;28;20419;-57
2022/03/01 10:33:54;;;;;;;12.50;9.30;;;7.20;52.20;;;;;;5113697;28;21022;-57
2022/03/01 10:36:23;;;;;;;11.73;8.40;;;8.20;52.00;;;;;;5114004;28;20929;-57
2022/03/01 10:39:01;;;;;;;8.90;7.50;;;8.60;51.10;;;;;;5113383;28;20478;-57
2022/03/01 10:41:33;;;;;;;12.10;7.70;;;8.90;50.30;;;;;;5113629;28;20462;-57
2022/03/01 10:44:03;;;;;;;12.37;9.10;;;9.00;49.60;;;;;;5114036;28;20423;-58
2022/03/01 10:46:31;;;;;;;8.50;7.10;;;9.40;49.70;;;;;;5113610;28;20524;-58
2022/03/01 10:49:08;;;;;;;13.33;8.43;;;10.50;49.00;;;;;;5113455;28;20445;-57
2022/03/01 10:51:35;;;;;;;12.20;9.13;;;10.90;46.80;;;;;;5113404;28;20501;-58
2022/03/01 10:54:04;;;;;;;16.70;8.80;;;11.30;47.00;;;;;;5113436;28;20482;-57
2022/03/01 10:56:36;;;;;;;13.93;10.10;;;11.80;46.80;;;;;;5113979;28;20519;-57
2022/03/01 10:59:04;;;;;;;12.70;9.60;;;12.00;46.10;;;;;;5113476;28;20478;-58
2022/03/01 11:01:32;;;;;;;10.90;8.33;;;12.70;47.10;;;;;;5114296;28;20495;-57
2022/03/01 11:03:59;;;;;;;9.93;8.30;;;12.50;43.40;;;;;;5113197;28;20537;-57
2022/03/01 11:06:27;;;;;;;9.13;8.23;;;12.20;44.10;;;;;;5113787;28;20637;-57
2022/03/01 11:08:55;;;;;;;10.97;8.80;;;11.70;44.20;;;;;;5113656;28;20446;-58
2022/03/01 11:11:26;;;;;;;11.33;8.40;;;11.30;44.00;;;;;;5114170;28;20438;-58
2022/03/01 11:13:54;;;;;;;9.20;7.30;;;12.50;44.70;;;;;;5118094;28;20423;-58
2022/03/01 11:16:34;;;;;;;8.70;7.90;;;12.20;42.30;;;;;;5118049;28;20556;-58
2022/03/01 11:19:14;;;;;;;12.10;10.40;;;12.80;43.60;;;;;;5117598;28;20888;-58
2022/03/01 11:21:44;;;;;;;10.90;8.97;;;13.10;43.40;;;;;;5117510;28;20479;-58
2022/03/01 11:24:13;;;;;;;14.13;9.23;;;12.80;44.70;;;;;;5117224;28;20809;-58
2022/03/01 11:26:41;;;;;;;9.40;8.03;;;13.00;42.70;;;;;;5116976;28;20474;-58
2022/03/01 11:29:10;;;;;;;10.07;8.67;;;13.40;43.10;;;;;;5117533;28;20925;-58
2022/03/01 11:31:38;;;;;;;12.00;8.07;;;13.40;43.40;;;;;;5117434;28;20933;-58
2022/03/01 11:34:08;;;;;;;12.57;8.60;;;12.90;42.00;;;;;;5117282;28;20442;-58
2022/03/01 11:36:36;;;;;;;12.93;9.00;;;12.60;42.40;;;;;;5117660;28;20537;-58
2022/03/01 11:39:12;;;;;;;12.90;7.80;;;12.40;41.70;;;;;;5116674;28;20485;-58
2022/03/01 11:41:45;;;;;;;9.80;8.30;;;12.70;42.70;;;;;;5117180;28;20446;-58
2022/03/01 11:44:14;;;;;;;8.83;7.47;;;13.90;43.30;;;;;;5116724;28;20495;-58
2022/03/01 11:46:43;;;;;;;8.03;7.23;;;14.50;41.50;;;;;;5117823;28;20489;-58
2022/03/01 11:49:12;;;;;;;8.50;7.70;;;14.20;40.20;;;;;;5117585;28;20446;-58
2022/03/01 11:51:41;;;;;;;10.37;7.53;;;14.00;40.80;;;;;;5117103;28;20529;-58
2022/03/01 11:54:12;;;;;;;10.30;8.37;;;14.30;41.50;;;;;;5117633;28;20443;-58
2022/03/01 11:56:42;;;;;;;7.77;6.77;;;14.20;40.60;;;;;;5116913;28;20470;-58
2022/03/01 11:59:12;;;;;;;8.23;7.03;;;13.60;37.60;;;;;;5116618;28;20563;-58
2022/03/01 12:01:40;;;;;;;8.67;7.40;;;13.50;37.30;;;;;;5116706;28;20884;-58
2022/03/01 12:04:09;;;;;;;9.83;8.17;;;12.10;37.30;;;;;;5116851;28;20959;-58
2022/03/01 12:06:39;;;;;;;10.43;6.90;;;12.20;37.90;;;;;;5116969;28;20498;-58
2022/03/01 12:09:07;;;;;;;8.63;6.83;;;11.80;38.10;;;;;;5117019;28;20609;-59
2022/03/01 12:11:39;;;;;;;11.10;7.43;;;12.50;38.70;;;;;;5117014;28;20784;-57
2022/03/01 12:14:11;;;;;;;9.43;7.77;;;12.70;38.50;;;;;;5116683;27;20480;-58
2022/03/01 12:16:39;;;;;;;8.60;7.63;;;11.80;38.50;;;;;;5116326;28;20968;-58
2022/03/01 12:19:08;;;;;;;10.23;9.23;;;12.90;39.60;;;;;;5116777;28;20562;-58
2022/03/01 12:21:36;;;;;;;8.80;7.10;;;13.00;39.20;;;;;;5116679;28;20534;-58
2022/03/01 12:24:04;;;;;;;9.50;6.90;;;12.80;38.80;;;;;;5115390;28;20448;-58
2022/03/01 12:26:31;;;;;;;11.43;7.97;;;13.40;38.10;;;;;;5116054;28;20835;-58
2022/03/01 12:29:00;;;;;;;11.10;7.40;;;12.50;38.00;;;;;;5116702;28;20525;-58
2022/03/01 12:31:30;;;;;;;9.30;8.03;;;12.10;39.20;;;;;;5116398;28;20503;-58
2022/03/01 12:34:02;;;;;;;11.17;7.80;;;13.00;40.30;;;;;;5116463;28;20487;-58
2022/03/01 12:36:31;;;;;;;8.77;7.53;;;12.90;38.30;;;;;;5116343;28;20469;-58
2022/03/01 12:39:00;;;;;;;10.23;7.07;;;12.40;38.30;;;;;;5115783;28;21067;-58
2022/03/01 12:41:28;;;;;;;10.60;7.40;;;11.90;37.00;;;;;;5116058;28;20453;-58
2022/03/01 12:43:56;;;;;;;9.30;7.13;;;11.60;37.60;;;;;;5116075;28;20450;-58
2022/03/01 12:46:24;;;;;;;8.07;6.93;;;12.50;37.70;;;;;;5115951;28;20550;-58